Time;durP1;ratioP1;P1;durP2;ratioP2;P2;SDS_P1;SDS_P2;PMS_P1;PMS_P2;Temp;Humidity;BMP_temperature;BMP_pressure;BME280_temperature;BME280_humidity;BME280_pressure;Samples;Min_cycle;Max_cycle;Signal;HPM_P1;HPM_P2
2023/01/09 00:00:21;;;;;;;;;1.00;0.00;;;;;9.80;100.00;99606.38;5070796;28;45419;-73
2023/01/09 00:02:47;;;;;;;;;1.00;0.00;;;;;9.82;100.00;99609.88;5068942;27;46220;-76
2023/01/09 00:05:14;;;;;;;;;0.00;0.00;;;;;9.84;100.00;99609.84;5060889;28;45455;-74
2023/01/09 00:07:40;;;;;;;;;0.00;0.00;;;;;9.85;100.00;99614.25;5069307;28;45660;-76
2023/01/09 00:10:06;;;;;;;;;0.00;0.00;;;;;9.85;100.00;99622.16;5075210;27;46744;-73
2023/01/09 00:12:32;;;;;;;;;3.00;0.00;;;;;9.87;100.00;99629.19;5071240;27;46240;-73
2023/01/09 00:14:57;;;;;;;;;0.00;0.00;;;;;9.83;100.00;99619.53;5070662;28;46122;-75
2023/01/09 00:17:23;;;;;;;;;1.67;0.00;;;;;9.82;100.00;99630.97;5072772;27;50497;-74
2023/01/09 00:19:49;;;;;;;;;0.00;0.00;;;;;9.81;100.00;99626.59;5073739;28;45323;-76
2023/01/09 00:22:14;;;;;;;;;0.00;0.00;;;;;9.84;100.00;99625.69;5075046;27;56820;-74
2023/01/09 00:24:39;;;;;;;;;1.00;0.00;;;;;9.80;100.00;99623.94;5058862;27;58226;-75
2023/01/09 00:27:05;;;;;;;;;2.33;0.00;;;;;9.86;100.00;99629.19;5068783;28;56169;-74
2023/01/09 00:29:30;;;;;;;;;1.00;0.00;;;;;9.80;100.00;99610.75;5071442;27;45503;-73
2023/01/09 00:31:56;;;;;;;;;0.00;0.00;;;;;9.84;100.00;99625.69;5073154;28;45722;-73
2023/01/09 00:34:22;;;;;;;;;0.00;0.00;;;;;9.86;100.00;99605.47;5064311;28;45461;-74
2023/01/09 00:36:47;;;;;;;;;0.67;0.00;;;;;9.88;100.00;99603.69;5074817;27;54250;-73
2023/01/09 00:39:13;;;;;;;;;2.00;0.00;;;;;9.88;100.00;99603.69;5073522;28;45678;-74
2023/01/09 00:41:42;;;;;;;;;0.00;0.00;;;;;9.86;100.00;99623.94;5075176;28;45596;-76
2023/01/09 00:44:13;;;;;;;;;3.33;1.00;;;;;9.87;100.00;99613.38;5074776;27;45445;-73
2023/01/09 00:46:43;;;;;;;;;0.00;0.00;;;;;9.86;100.00;99622.16;5070810;28;45529;-73
2023/01/09 00:49:11;;;;;;;;;0.00;0.00;;;;;9.83;100.00;99619.53;5078765;27;45495;-73
2023/01/09 00:51:38;;;;;;;;;1.00;0.00;;;;;9.80;100.00;99635.38;5075763;28;46729;-73
2023/01/09 00:54:03;;;;;;;;;3.33;0.00;;;;;9.77;100.00;99640.66;5076141;27;45421;-74
2023/01/09 00:56:29;;;;;;;;;1.00;0.00;;;;;9.77;100.00;99647.69;5067812;28;45553;-74
2023/01/09 00:58:54;;;;;;;;;0.00;0.00;;;;;9.74;100.00;99635.38;5070639;27;53558;-73
2023/01/09 01:01:20;;;;;;;;;2.00;0.00;;;;;9.77;100.00;99634.50;5069424;28;52953;-75
2023/01/09 01:03:45;;;;;;;;;1.00;0.00;;;;;9.76;100.00;99624.84;5072494;27;45501;-73
2023/01/09 01:08:55;;;;;;;;;0.33;0.00;;;;;9.76;100.00;99631.00;5062875;28;45439;-74
2023/01/09 01:11:20;;;;;;;;;1.00;0.00;;;;;9.79;100.00;99644.16;5064532;28;45664;-74
2023/01/09 01:13:46;;;;;;;;;1.00;0.00;;;;;9.83;100.00;99647.66;5076222;27;55005;-75
2023/01/09 01:16:11;;;;;;;;;1.00;0.00;;;;;9.86;100.00;99653.81;5077811;27;45798;-74
2023/01/09 01:18:37;;;;;;;;;0.67;0.00;;;;;9.87;100.00;99649.41;5070351;28;45481;-75
2023/01/09 01:21:12;;;;;;;;;0.67;0.67;;;;;9.88;100.00;99646.75;5070817;27;46536;-74
2023/01/09 01:23:38;;;;;;;;;0.67;0.00;;;;;9.90;100.00;99652.88;5093994;27;45245;-73
2023/01/09 01:26:09;;;;;;;;;3.00;0.00;;;;;9.90;100.00;99650.25;5077993;27;45197;-75
2023/01/09 01:28:35;;;;;;;;;0.33;0.00;;;;;9.89;100.00;99643.22;5068377;28;45374;-76
2023/01/09 01:31:00;;;;;;;;;3.00;0.00;;;;;9.87;100.00;99655.53;5066571;27;63175;-74
2023/01/09 01:33:26;;;;;;;;;2.00;0.00;;;;;9.89;100.00;99658.16;5074805;28;45355;-73
2023/01/09 01:36:05;;;;;;;;;7.33;0.67;;;;;9.88;100.00;99659.94;5075146;28;45309;-73
2023/01/09 01:38:31;;;;;;;;;1.00;0.00;;;;;9.91;100.00;99669.59;5069270;27;45458;-73
2023/01/09 01:40:56;;;;;;;;;3.00;0.00;;;;;9.92;100.00;99656.41;5074723;27;46245;-73
2023/01/09 01:43:22;;;;;;;;;3.67;0.67;;;;;9.88;100.00;99657.28;5066432;28;45305;-74
2023/01/09 01:45:47;;;;;;;;;1.00;0.00;;;;;9.87;100.00;99666.09;5065740;28;50792;-76
2023/01/09 01:48:26;;;;;;;;;3.00;0.00;;;;;9.89;100.00;99663.44;5071581;27;49050;-74
2023/01/09 01:51:02;;;;;;;;;0.00;0.00;;;;;9.89;100.00;99666.94;5075592;28;45574;-76
2023/01/09 01:53:35;;;;;;;;;2.33;0.00;;;;;9.88;100.00;99673.13;5071687;27;45519;-74
2023/01/09 01:56:00;;;;;;;;;1.67;0.33;;;;;9.85;100.00;99673.13;5068843;28;45525;-76
2023/01/09 01:58:26;;;;;;;;;2.00;1.00;;;;;9.86;100.00;99668.75;5066739;28;45732;-75
2023/01/09 02:00:51;;;;;;;;;2.00;0.67;;;;;9.87;100.00;99665.22;5065673;28;50216;-73
2023/01/09 02:03:20;;;;;;;;;3.00;0.00;;;;;9.87;100.00;99674.00;5076061;28;59811;-74
2023/01/09 02:05:45;;;;;;;;;0.33;0.33;;;;;9.89;100.00;99671.34;5076169;28;45459;-74
2023/01/09 02:08:11;;;;;;;;;0.00;0.00;;;;;9.88;100.00;99664.34;5075729;28;54520;-73
2023/01/09 02:10:38;;;;;;;;;2.00;1.00;;;;;9.89;100.00;99672.22;5075153;28;45519;-75
2023/01/09 02:13:05;;;;;;;;;0.00;0.00;;;;;9.90;100.00;99665.19;5075976;27;45502;-72
2023/01/09 02:16:04;;;;;;;;;3.00;0.00;;;;;9.89;100.00;99669.59;5068437;28;45425;-76
2023/01/09 02:18:46;;;;;;;;;2.67;0.00;;;;;9.87;100.00;99681.91;5046305;28;45512;-74
2023/01/09 02:21:27;;;;;;;;;6.00;0.00;;;;;9.83;100.00;99669.63;5065070;28;45843;-74
2023/01/09 02:23:59;;;;;;;;;0.00;0.00;;;;;9.82;100.00;99674.91;5069819;28;45350;-74
2023/01/09 02:26:55;;;;;;;;;0.00;0.00;;;;;9.81;100.00;99695.13;5067922;28;45173;-73
2023/01/09 02:29:35;;;;;;;;;0.00;0.00;;;;;9.81;100.00;99696.88;5072523;27;45488;-74
2023/01/09 02:32:16;;;;;;;;;2.00;0.33;;;;;9.81;100.00;99687.22;5064414;28;45735;-74
2023/01/09 02:34:55;;;;;;;;;4.00;0.00;;;;;9.81;100.00;99691.63;5063822;28;45482;-73
2023/01/09 02:37:33;;;;;;;;;2.67;0.00;;;;;9.80;100.00;99684.56;5064875;27;45478;-74
2023/01/09 02:40:17;;;;;;;;;3.00;0.00;;;;;9.81;100.00;99704.81;5071384;28;45520;-76
2023/01/09 02:42:43;;;;;;;;;4.00;0.00;;;;;9.80;100.00;99695.09;5072661;28;46991;-73
2023/01/09 02:45:08;;;;;;;;;1.00;1.00;;;;;9.81;100.00;99704.81;5061961;28;53584;-73
2023/01/09 02:47:42;;;;;;;;;3.67;0.00;;;;;9.82;100.00;99704.78;5067934;28;45471;-74
2023/01/09 02:50:21;;;;;;;;;0.00;0.00;;;;;9.82;100.00;99699.50;5069983;28;45654;-73
2023/01/09 02:53:04;;;;;;;;;2.00;0.00;;;;;9.85;100.00;99691.56;5072237;27;46572;-73
2023/01/09 02:56:07;;;;;;;;;7.00;0.67;;;;;9.83;100.00;99708.28;5067902;28;45425;-73
2023/01/09 02:58:36;;;;;;;;;0.00;0.00;;;;;9.87;100.00;99703.00;5063220;28;45353;-74
2023/01/09 03:01:22;;;;;;;;;1.00;0.00;;;;;9.90;100.00;99699.47;5073532;28;45603;-74
2023/01/09 03:03:55;;;;;;;;;0.00;0.00;;;;;9.92;100.00;99690.69;5076134;27;45708;-73
2023/01/09 03:06:41;;;;;;;;;3.00;0.00;;;;;9.93;100.00;99696.81;5056734;28;45244;-76
2023/01/09 03:09:12;;;;;;;;;2.00;0.00;;;;;9.90;100.00;99700.34;5071604;28;45515;-75
2023/01/09 03:11:42;;;;;;;;;0.33;0.00;;;;;9.86;100.00;99701.25;5070040;28;45465;-73
2023/01/09 03:14:12;;;;;;;;;1.67;0.33;;;;;9.84;100.00;99707.41;5061526;28;45731;-76
2023/01/09 03:16:37;;;;;;;;;0.00;0.00;;;;;9.81;100.00;99708.31;5063422;28;45465;-75
2023/01/09 03:19:13;;;;;;;;;1.67;0.67;;;;;9.82;100.00;99720.59;5062978;28;45550;-75
2023/01/09 03:21:39;;;;;;;;;0.00;0.00;;;;;9.82;100.00;99709.19;5071656;28;45369;-73
2023/01/09 03:24:04;;;;;;;;;0.00;0.00;;;;;9.86;100.00;99721.47;5040037;28;59504;-72
2023/01/09 03:26:30;;;;;;;;;0.00;0.00;;;;;9.85;100.00;99704.75;5063110;28;45366;-75
2023/01/09 03:28:56;;;;;;;;;2.00;0.00;;;;;9.87;100.00;99720.59;5070235;28;45507;-75
2023/01/09 03:31:21;;;;;;;;;0.00;0.00;;;;;9.84;100.00;99705.63;5071764;28;45480;-75
2023/01/09 03:33:47;;;;;;;;;0.00;0.00;;;;;9.85;100.00;99715.28;5063759;28;46503;-75
2023/01/09 03:36:14;;;;;;;;;1.00;0.00;;;;;9.88;100.00;99722.34;5075588;28;47751;-74
2023/01/09 03:38:40;;;;;;;;;1.00;0.00;;;;;9.86;100.00;99716.22;5077819;27;45687;-74
2023/01/09 03:41:06;;;;;;;;;0.00;0.00;;;;;9.85;100.00;99715.28;5065596;27;45510;-73
2023/01/09 03:43:31;;;;;;;;;0.50;0.00;;;;;9.84;100.00;99721.47;5072779;28;45606;-74
2023/01/09 03:45:57;;;;;;;;;6.00;0.33;;;;;9.84;100.00;99717.94;5068540;28;58765;-73
2023/01/09 03:48:22;;;;;;;;;0.00;0.00;;;;;9.85;100.00;99725.84;5075609;27;45446;-75
2023/01/09 03:50:51;;;;;;;;;0.00;0.00;;;;;9.81;100.00;99717.97;5067468;27;45389;-73
2023/01/09 03:53:17;;;;;;;;;1.00;0.00;;;;;9.82;100.00;99717.97;5065430;27;45658;-76
2023/01/09 03:55:45;;;;;;;;;0.00;0.00;;;;;9.78;100.00;99710.94;5068989;27;45496;-74
2023/01/09 03:58:11;;;;;;;;;1.00;0.00;;;;;9.77;100.00;99725.00;5067688;27;45294;-74
2023/01/09 04:00:38;;;;;;;;;2.00;1.00;;;;;9.76;100.00;99718.00;5068981;27;45419;-72
2023/01/09 04:03:03;;;;;;;;;0.00;0.00;;;;;9.75;100.00;99734.69;5065117;28;45701;-73
2023/01/09 04:05:28;;;;;;;;;0.00;0.00;;;;;9.77;100.00;99751.38;5065803;28;45361;-75
2023/01/09 04:07:54;;;;;;;;;0.00;0.00;;;;;9.74;100.00;99740.81;5067716;28;57007;-74
2023/01/09 04:10:19;;;;;;;;;0.00;0.00;;;;;9.78;100.00;99754.88;5075157;27;52160;-73
2023/01/09 04:12:44;;;;;;;;;0.00;0.00;;;;;9.76;100.00;99749.63;5069053;27;46315;-74
2023/01/09 04:15:10;;;;;;;;;0.00;0.00;;;;;9.83;100.00;99755.75;5080486;27;45578;-73
2023/01/09 04:17:35;;;;;;;;;0.00;0.00;;;;;9.84;100.00;99747.81;5069897;28;45381;-73
2023/01/09 04:20:01;;;;;;;;;1.00;0.00;;;;;9.92;100.00;99750.44;5070329;28;49530;-73
2023/01/09 04:22:26;;;;;;;;;1.00;0.00;;;;;9.99;100.00;99762.72;5070742;28;46152;-73
2023/01/09 04:24:51;;;;;;;;;0.00;0.00;;;;;10.02;100.00;99752.16;5069171;28;45451;-74
2023/01/09 04:27:17;;;;;;;;;4.00;0.00;;;;;10.07;100.00;99758.31;5076596;27;47164;-75
2023/01/09 04:29:42;;;;;;;;;1.33;0.33;;;;;10.07;100.00;99752.16;5071258;28;45438;-72
2023/01/09 04:32:07;;;;;;;;;0.00;0.00;;;;;10.06;100.00;99745.09;5069470;28;60639;-76
2023/01/09 04:34:33;;;;;;;;;1.00;0.00;;;;;10.05;100.00;99751.25;5078266;28;58198;-74
2023/01/09 04:36:58;;;;;;;;;0.00;0.00;;;;;10.02;100.00;99746.91;5069576;28;55969;-73
2023/01/09 04:39:23;;;;;;;;;0.00;0.00;;;;;10.02;100.00;99748.66;5063501;28;51192;-76
2023/01/09 04:41:49;;;;;;;;;0.67;0.00;;;;;10.02;100.00;99749.53;5066743;28;53537;-76
2023/01/09 04:44:18;;;;;;;;;1.00;0.00;;;;;10.04;100.00;99763.56;5069465;28;45389;-72
2023/01/09 04:46:44;;;;;;;;;1.00;0.00;;;;;10.05;100.00;99775.00;5064927;27;45616;-74
2023/01/09 04:49:13;;;;;;;;;0.33;0.00;;;;;10.06;100.00;99759.16;5072867;28;45291;-76
2023/01/09 04:51:38;;;;;;;;;3.00;0.00;;;;;10.07;100.00;99752.16;5072537;27;46055;-74
2023/01/09 04:54:04;;;;;;;;;0.00;0.00;;;;;10.07;100.00;99753.03;5077657;28;56020;-74
2023/01/09 04:56:29;;;;;;;;;0.00;0.00;;;;;10.13;100.00;99758.28;5069601;28;45380;-73
2023/01/09 04:58:54;;;;;;;;;0.00;0.00;;;;;10.18;100.00;99771.44;5071098;28;45395;-75
2023/01/09 05:01:20;;;;;;;;;0.00;0.00;;;;;10.18;100.00;99756.50;5075055;27;51405;-75
2023/01/09 05:03:45;;;;;;;;;0.00;0.00;;;;;10.23;100.00;99769.66;5074199;28;45432;-74
2023/01/09 05:06:13;;;;;;;;;0.67;0.00;;;;;10.26;100.00;99769.66;5076865;28;45331;-76
2023/01/09 05:08:39;;;;;;;;;2.33;0.00;;;;;10.29;100.00;99774.06;5076694;27;45607;-73
2023/01/09 05:11:04;;;;;;;;;0.00;0.00;;;;;10.29;100.00;99789.91;5077509;27;60748;-75
2023/01/09 05:13:30;;;;;;;;;0.00;0.00;;;;;10.30;100.00;99783.72;5064887;28;45321;-75
2023/01/09 05:15:55;;;;;;;;;1.00;0.00;;;;;10.30;100.00;99789.88;5069203;27;54383;-74
2023/01/09 05:18:20;;;;;;;;;0.00;0.00;;;;;10.34;100.00;99803.94;5063090;28;54608;-73
2023/01/09 05:20:46;;;;;;;;;1.00;0.00;;;;;10.35;100.00;99796.00;5069031;28;62953;-73
2023/01/09 05:23:11;;;;;;;;;2.33;0.00;;;;;10.38;100.00;99805.66;5069777;27;60114;-75
2023/01/09 05:25:36;;;;;;;;;0.00;0.00;;;;;10.39;100.00;99796.88;5074958;27;45178;-74
2023/01/09 05:28:02;;;;;;;;;0.00;0.00;;;;;10.40;100.00;99809.19;5066447;28;51516;-77
2023/01/09 05:30:27;;;;;;;;;1.00;0.00;;;;;10.41;100.00;99824.13;5077319;27;46297;-75
2023/01/09 05:32:53;;;;;;;;;1.33;0.00;;;;;10.38;100.00;99825.00;5066323;28;45498;-75
2023/01/09 05:35:19;;;;;;;;;2.00;0.00;;;;;10.37;100.00;99817.97;5070446;28;45290;-73
2023/01/09 05:37:44;;;;;;;;;0.00;0.00;;;;;10.37;100.00;99831.19;5069601;27;45424;-73
2023/01/09 05:40:10;;;;;;;;;0.00;0.00;;;;;10.31;100.00;99823.28;5077622;27;45989;-75
2023/01/09 05:42:35;;;;;;;;;0.00;0.00;;;;;10.32;100.00;99837.34;5074540;27;45456;-74
2023/01/09 05:45:01;;;;;;;;;1.00;0.00;;;;;10.26;100.00;99832.97;5066418;28;45287;-73
2023/01/09 05:47:26;;;;;;;;;1.00;0.00;;;;;10.27;100.00;99821.53;5073554;28;51758;-76
2023/01/09 05:49:55;;;;;;;;;1.00;0.00;;;;;10.21;100.00;99842.63;5070471;27;45476;-73
2023/01/09 05:52:20;;;;;;;;;0.00;0.00;;;;;10.17;100.00;99832.97;5071246;28;45487;-74
2023/01/09 05:54:45;;;;;;;;;0.00;0.00;;;;;10.16;100.00;99833.88;5074589;27;45522;-75
2023/01/09 05:57:11;;;;;;;;;0.00;0.00;;;;;10.15;100.00;99837.38;5074051;27;45781;-73
2023/01/09 05:59:36;;;;;;;;;0.00;0.00;;;;;10.14;100.00;99856.75;5068256;27;57829;-74
2023/01/09 06:02:02;;;;;;;;;1.00;0.00;;;;;10.13;100.00;99847.09;5072757;27;45203;-75
2023/01/09 06:04:28;;;;;;;;;0.00;0.00;;;;;10.14;100.00;99841.78;5075730;27;45488;-73
2023/01/09 06:06:54;;;;;;;;;0.33;0.00;;;;;10.14;100.00;99844.44;5069123;27;45550;-73
2023/01/09 06:09:19;;;;;;;;;0.00;0.00;;;;;10.16;100.00;99847.06;5077430;27;45511;-74
2023/01/09 06:11:45;;;;;;;;;1.00;0.00;;;;;10.14;100.00;99846.19;5068314;27;59344;-73
2023/01/09 06:14:10;;;;;;;;;0.00;0.00;;;;;10.10;100.00;99853.22;5073495;28;45502;-73
2023/01/09 06:16:35;;;;;;;;;1.00;0.00;;;;;10.07;100.00;99847.09;5076505;27;49783;-74
2023/01/09 06:19:01;;;;;;;;;1.00;0.00;;;;;10.07;100.00;99853.25;5070771;27;46278;-73
2023/01/09 06:21:28;;;;;;;;;1.00;0.00;;;;;10.06;100.00;99858.50;5070544;27;45446;-74
2023/01/09 06:23:54;;;;;;;;;3.00;0.00;;;;;10.02;100.00;99865.56;5073316;27;45310;-75
2023/01/09 06:26:19;;;;;;;;;1.00;0.00;;;;;10.03;100.00;99871.72;5074058;28;45639;-76
2023/01/09 06:28:44;;;;;;;;;1.00;0.00;;;;;10.01;100.00;99882.25;5074691;28;46370;-73
2023/01/09 06:31:10;;;;;;;;;0.00;0.00;;;;;9.99;100.00;99889.31;5069198;28;61496;-73
2023/01/09 06:33:35;;;;;;;;;3.00;0.00;;;;;9.98;100.00;99880.50;5072410;28;55497;-73
2023/01/09 06:36:01;;;;;;;;;1.33;0.00;;;;;10.01;100.00;99891.94;5074507;28;52381;-77
2023/01/09 06:38:26;;;;;;;;;0.00;0.00;;;;;10.03;100.00;99893.69;5065278;28;45588;-75
2023/01/09 06:40:51;;;;;;;;;0.00;0.00;;;;;10.06;100.00;99891.03;5065873;28;57856;-76
2023/01/09 06:43:17;;;;;;;;;2.33;0.00;;;;;10.07;100.00;99892.81;5070687;28;45530;-72
2023/01/09 06:45:42;;;;;;;;;0.00;0.00;;;;;10.06;100.00;99900.72;5067810;28;50543;-74
2023/01/09 06:48:08;;;;;;;;;1.00;0.00;;;;;10.04;100.00;99911.28;5074084;27;45691;-72
2023/01/09 06:50:34;;;;;;;;;1.00;0.00;;;;;10.01;100.00;99902.47;5074142;27;45575;-74
2023/01/09 06:52:59;;;;;;;;;0.00;0.00;;;;;10.01;100.00;99903.34;5073167;28;45544;-74
2023/01/09 06:55:25;;;;;;;;;2.00;0.00;;;;;10.03;100.00;99914.78;5074335;28;45489;-74
2023/01/09 06:57:51;;;;;;;;;2.00;0.00;;;;;10.03;100.00;99922.72;5074196;27;45544;-74
2023/01/09 07:00:16;;;;;;;;;0.00;0.00;;;;;10.01;100.00;99913.03;5068252;27;45769;-77
2023/01/09 07:02:42;;;;;;;;;0.00;0.00;;;;;10.01;100.00;99926.22;5074346;28;45482;-75
2023/01/09 07:05:07;;;;;;;;;1.00;0.00;;;;;10.00;100.00;99927.09;5067331;27;45527;-75
2023/01/09 07:07:33;;;;;;;;;1.00;0.00;;;;;9.97;100.00;99934.16;5072392;28;45493;-74
2023/01/09 07:09:58;;;;;;;;;0.00;0.00;;;;;9.98;100.00;99937.66;5072050;27;45452;-74
2023/01/09 07:12:24;;;;;;;;;1.00;0.00;;;;;9.98;100.00;99938.53;5070883;27;52242;-76
2023/01/09 07:14:49;;;;;;;;;0.00;0.00;;;;;9.94;100.00;99944.69;5066303;27;46031;-75
2023/01/09 07:17:14;;;;;;;;;0.00;0.00;;;;;9.96;100.00;99942.06;5063048;28;57693;-78
2023/01/09 07:19:40;;;;;;;;;0.00;0.00;;;;;9.94;100.00;99944.69;5067920;28;45477;-79
2023/01/09 07:22:05;;;;;;;;;2.00;0.33;;;;;9.95;100.00;99943.78;5057091;28;45556;-78
2023/01/09 07:24:31;;;;;;;;;0.67;0.00;;;;;9.98;100.00;99937.66;5059749;28;45591;-77
2023/01/09 07:26:56;;;;;;;;;3.00;0.00;;;;;9.99;100.00;99947.31;5059522;28;63165;-76
2023/01/09 07:29:21;;;;;;;;;1.67;0.00;;;;;10.03;100.00;99950.84;5060152;28;45498;-77
2023/01/09 07:31:47;;;;;;;;;2.33;0.00;;;;;10.01;100.00;99942.91;5059387;28;46076;-77
2023/01/09 07:34:12;;;;;;;;;2.33;0.00;;;;;10.03;100.00;99942.94;5065661;28;51592;-77
2023/01/09 07:36:37;;;;;;;;;1.00;0.00;;;;;10.03;100.00;99966.66;5064898;28;46178;-77
2023/01/09 07:39:03;;;;;;;;;0.00;0.00;;;;;10.01;100.00;99958.72;5067539;28;45733;-77
2023/01/09 07:41:28;;;;;;;;;0.00;0.00;;;;;10.02;100.00;99965.78;5068859;28;52908;-80
2023/01/09 07:43:53;;;;;;;;;0.00;0.00;;;;;10.00;100.00;99974.56;5058325;28;45503;-78
2023/01/09 07:46:19;;;;;;;;;0.00;0.00;;;;;10.01;100.00;99974.56;5063523;28;58569;-79
2023/01/09 07:49:21;;;;;;;;;0.00;0.00;;;;;10.01;100.00;99989.50;5067482;28;45491;-78
2023/01/09 07:51:48;;;;;;;;;2.00;0.00;;;;;9.98;100.00;99999.19;5007146;28;45419;-77
2023/01/09 07:54:13;;;;;;;;;0.00;0.00;;;;;9.95;100.00;99990.38;5046291;28;46938;-78
2023/01/09 07:56:39;;;;;;;;;0.00;0.00;;;;;9.98;100.00;100003.59;5067612;28;45868;-79
2023/01/09 07:59:04;;;;;;;;;0.00;0.00;;;;;9.98;100.00;99993.91;5071086;28;45518;-78
2023/01/09 08:01:30;;;;;;;;;0.00;0.00;;;;;9.98;100.00;99998.31;5069570;28;51696;-77
2023/01/09 08:03:55;;;;;;;;;0.00;0.00;;;;;10.00;100.00;100000.94;5067789;27;46399;-76
2023/01/09 08:06:21;;;;;;;;;0.00;0.00;;;;;10.01;100.00;100014.13;5070601;28;63151;-77
2023/01/09 08:08:46;;;;;;;;;0.00;0.00;;;;;10.02;100.00;100020.28;5073933;27;57597;-78
2023/01/09 08:11:11;;;;;;;;;0.00;0.00;;;;;10.01;100.00;100018.50;5045500;28;50385;-79
2023/01/09 08:13:37;;;;;;;;;0.00;0.00;;;;;10.00;100.00;100011.47;5067005;28;45467;-76
2023/01/09 08:16:02;;;;;;;;;1.00;0.00;;;;;9.97;100.00;100013.25;5069406;27;46477;-78
2023/01/09 08:18:27;;;;;;;;;1.00;0.00;;;;;9.96;100.00;100019.41;5068846;28;45562;-75
2023/01/09 08:20:53;;;;;;;;;1.00;0.00;;;;;9.94;100.00;100026.44;5065580;27;54557;-77
2023/01/09 08:23:18;;;;;;;;;0.00;0.00;;;;;9.90;100.00;100043.13;5069998;28;53629;-75
2023/01/09 08:25:43;;;;;;;;;1.00;0.00;;;;;9.90;100.00;100043.13;5067180;27;45725;-79
2023/01/09 08:28:09;;;;;;;;;0.00;0.00;;;;;9.90;100.00;100050.16;5074938;27;57979;-76
2023/01/09 08:30:35;;;;;;;;;0.00;0.00;;;;;9.86;100.00;100051.06;5065845;27;45535;-77
2023/01/09 08:33:00;;;;;;;;;0.00;0.00;;;;;9.83;100.00;100049.28;5069327;28;45710;-76
2023/01/09 08:35:25;;;;;;;;;0.00;0.00;;;;;9.85;100.00;100047.50;5071564;28;45423;-78
2023/01/09 08:37:51;;;;;;;;;1.67;0.00;;;;;9.85;100.00;100060.69;5064469;27;57090;-77
2023/01/09 08:40:17;;;;;;;;;1.00;0.00;;;;;9.82;100.00;100049.28;5074039;27;45354;-76
2023/01/09 08:48:10;;;;;;;;;1.00;0.00;;;;;9.84;100.00;100064.22;5066312;28;45610;-78
2023/01/09 08:50:36;;;;;;;;;0.67;0.00;;;;;9.81;100.00;100071.25;5075876;28;45580;-77
2023/01/09 08:53:02;;;;;;;;;0.00;0.00;;;;;9.75;100.00;100072.13;5069660;27;45452;-76
2023/01/09 08:55:27;;;;;;;;;1.00;0.00;;;;;9.73;100.00;100072.97;5076210;27;45459;-75
2023/01/09 08:57:53;;;;;;;;;0.67;0.00;;;;;9.75;100.00;100087.03;5068979;27;45777;-77
2023/01/09 09:00:21;;;;;;;;;0.00;0.00;;;;;9.78;100.00;100087.06;5071955;28;45420;-79
2023/01/09 09:03:05;;;;;;;;;0.00;0.00;;;;;9.78;100.00;100077.38;5069615;27;45550;-75
2023/01/09 09:05:31;;;;;;;;;0.00;0.00;;;;;9.75;100.00;100093.22;5071630;28;57842;-77
2023/01/09 09:07:56;;;;;;;;;0.00;0.00;;;;;9.78;100.00;100101.09;5071861;28;45591;-77
2023/01/09 09:10:23;;;;;;;;;0.00;0.00;;;;;9.84;100.00;100111.66;5067480;28;45519;-78
2023/01/09 09:12:50;;;;;;;;;0.00;0.00;;;;;9.89;100.00;100119.59;5058649;28;45627;-76
2023/01/09 09:15:22;;;;;;;;;0.00;0.00;;;;;9.98;100.00;100136.31;5074867;27;45593;-76
2023/01/09 09:17:59;;;;;;;;;0.00;0.00;;;;;10.01;100.00;100127.50;5051470;28;45438;-79
2023/01/09 09:20:30;;;;;;;;;0.00;0.00;;;;;10.06;100.00;100143.34;5070613;28;46016;-79
2023/01/09 09:22:55;;;;;;;;;0.00;0.00;;;;;10.03;100.00;100141.63;5075276;28;45445;-77
2023/01/09 09:25:20;;;;;;;;;0.00;0.00;;;;;10.03;100.00;100161.84;5071522;27;46104;-78
2023/01/09 09:27:46;;;;;;;;;0.00;0.00;;;;;10.02;100.00;100142.50;5067971;27;45377;-77
2023/01/09 09:30:13;;;;;;;;;0.00;0.00;;;;;9.97;100.00;100142.47;5068498;28;45451;-79
2023/01/09 09:32:39;;;;;;;;;0.00;0.00;;;;;9.94;100.00;100147.72;5069030;28;45509;-76
2023/01/09 09:35:04;;;;;;;;;0.00;0.00;;;;;9.89;100.00;100148.59;5068569;28;45777;-77
2023/01/09 09:37:30;;;;;;;;;0.00;0.00;;;;;9.85;100.00;100158.25;5062307;28;45485;-77
2023/01/09 09:39:56;;;;;;;;;0.00;0.00;;;;;9.82;100.00;100171.44;5067304;28;46443;-77
2023/01/09 09:45:54;;;;;;;;;0.00;0.00;;;;;9.81;100.00;100188.13;5072735;28;45333;-76
2023/01/09 09:48:36;;;;;;;;;0.00;0.00;;;;;9.87;100.00;100182.00;5067905;28;45441;-76
2023/01/09 09:51:27;;;;;;;;;0.00;0.00;;;;;9.94;100.00;100189.94;5072712;27;45648;-77
2023/01/09 09:54:03;;;;;;;;;1.00;0.00;;;;;10.03;100.00;100188.22;5070564;28;45824;-76
2023/01/09 09:56:33;;;;;;;;;2.00;0.00;;;;;10.10;100.00;100198.75;5069043;28;46607;-75
2023/01/09 09:59:03;;;;;;;;;0.00;0.00;;;;;10.18;100.00;100201.44;5172636;22;45907;-76
2023/01/09 10:01:47;;;;;;;;;2.67;0.00;;;;;10.27;100.00;100203.22;5052735;28;45430;-74
2023/01/09 10:04:16;;;;;;;;;0.00;0.00;;;;;10.42;100.00;100212.06;5051245;28;45367;-77
2023/01/09 10:06:43;;;;;;;;;0.00;0.00;;;;;10.48;100.00;100222.63;5074664;28;45473;-77
2023/01/09 10:09:39;;;;;;;;;0.00;0.00;;;;;10.51;100.00;100210.31;5056956;28;45568;-76
2023/01/09 10:12:04;;;;;;;;;0.33;0.00;;;;;10.53;100.00;100220.00;5064332;28;46070;-76
2023/01/09 10:14:30;;;;;;;;;0.00;0.00;;;;;10.54;100.00;100244.63;5071144;27;45731;-75
2023/01/09 10:17:48;;;;;;;;;0.00;0.00;;;;;10.59;100.00;100230.56;5073108;28;45410;-76
2023/01/09 10:20:38;;;;;;;;;0.00;0.00;;;;;10.66;100.00;100242.03;5048705;28;46213;-75
2023/01/09 10:23:19;;;;;;;;;2.00;1.00;;;;;10.76;100.00;100246.44;5069906;28;46776;-76
2023/01/09 10:26:06;;;;;;;;;0.67;0.00;;;;;10.78;100.00;100257.88;5053664;28;45539;-77
2023/01/09 10:28:43;;;;;;;;;0.00;0.00;;;;;10.75;100.00;100263.13;5071209;28;46658;-76
2023/01/09 10:31:26;;;;;;;;;1.00;0.00;;;;;10.69;100.00;100276.34;5074846;28;45528;-76
2023/01/09 10:34:10;;;;;;;;;0.00;0.00;;;;;10.72;100.00;100274.59;5069150;27;45521;-76
2023/01/09 10:36:53;;;;;;;;;1.00;0.00;;;;;10.72;100.00;100269.31;5075549;28;45347;-79
2023/01/09 10:39:51;;;;;;;;;0.67;0.00;;;;;10.71;100.00;100269.31;5058429;28;46310;-75
2023/01/09 10:42:32;;;;;;;;;0.33;0.00;;;;;10.62;100.00;100266.66;5018547;28;45497;-75
2023/01/09 10:45:00;;;;;;;;;0.00;0.00;;;;;10.58;100.00;100281.59;5038313;28;45552;-76
2023/01/09 10:47:34;;;;;;;;;0.67;0.00;;;;;10.55;100.00;100278.09;5073031;27;45564;-76
2023/01/09 10:50:24;;;;;;;;;1.00;0.00;;;;;10.56;100.00;100283.38;5056340;28;45865;-75
2023/01/09 10:52:52;;;;;;;;;0.00;0.00;;;;;10.59;100.00;100280.72;5048391;28;45311;-77
2023/01/09 10:55:26;;;;;;;;;0.75;0.00;;;;;10.62;100.00;100283.38;5070369;28;45484;-74
2023/01/09 10:57:56;;;;;;;;;0.00;0.00;;;;;10.60;100.00;100273.66;5074285;28;45476;-75
2023/01/09 11:00:23;;;;;;;;;1.00;0.00;;;;;10.57;100.00;100285.13;5075084;28;45867;-76
2023/01/09 11:02:49;;;;;;;;;0.00;0.00;;;;;10.58;100.00;100286.88;5057100;28;45545;-75
2023/01/09 11:05:19;;;;;;;;;0.00;0.00;;;;;10.59;100.00;100300.94;5075611;27;45469;-75
2023/01/09 11:07:48;;;;;;;;;0.33;0.00;;;;;10.60;100.00;100297.44;5057650;28;45634;-75
2023/01/09 11:10:14;;;;;;;;;1.00;1.00;;;;;10.57;100.00;100290.41;5051168;27;45381;-76
2023/01/09 11:12:40;;;;;;;;;0.00;0.00;;;;;10.55;100.00;100286.00;5056203;28;45707;-74
2023/01/09 11:15:14;;;;;;;;;1.00;0.00;;;;;10.59;100.00;100279.84;5056114;28;45433;-77
2023/01/09 11:17:40;;;;;;;;;0.00;0.00;;;;;10.63;100.00;100292.16;5072225;28;45513;-76
2023/01/09 11:20:25;;;;;;;;;0.00;0.00;;;;;10.70;100.00;100281.59;5053518;28;45362;-76
2023/01/09 11:22:55;;;;;;;;;0.00;0.00;;;;;10.77;100.00;100295.72;5068623;28;45479;-74
2023/01/09 11:25:23;;;;;;;;;0.00;0.00;;;;;10.79;100.00;100285.16;5074181;27;45353;-80
2023/01/09 11:28:00;;;;;;;;;1.33;0.00;;;;;10.79;100.00;100283.41;5068599;28;45341;-76
2023/01/09 11:30:26;;;;;;;;;0.00;0.00;;;;;10.80;100.00;100290.44;5072925;28;45548;-78
2023/01/09 11:32:53;;;;;;;;;0.00;0.00;;;;;10.85;100.00;100287.81;5057467;28;45974;-76
2023/01/09 11:35:25;;;;;;;;;0.00;0.00;;;;;10.91;100.00;100286.03;5070999;28;45435;-76
2023/01/09 11:38:00;;;;;;;;;0.67;0.00;;;;;10.92;100.00;100279.00;5057083;28;45325;-76
2023/01/09 11:40:25;;;;;;;;;0.00;0.00;;;;;10.88;100.00;100278.13;5050603;28;45905;-75
2023/01/09 11:43:02;;;;;;;;;1.67;0.00;;;;;10.83;100.00;100285.16;5074767;28;45497;-75
2023/01/09 11:45:33;;;;;;;;;0.00;0.00;;;;;10.80;100.00;100294.84;5070385;28;45479;-77